createdAt,value
2018-12-16T00:01:04.901Z,50.57
2018-12-16T00:03:33.105Z,46.90
2018-12-16T00:06:01.217Z,49.20
2018-12-16T00:08:29.358Z,50.40
2018-12-16T00:10:57.431Z,51.77
2018-12-16T00:13:27.484Z,52.53
2018-12-16T00:15:55.791Z,49.47
2018-12-16T00:18:24.319Z,50.70
2018-12-16T00:20:52.460Z,49.53
2018-12-16T00:23:20.666Z,51.73
2018-12-16T00:25:48.766Z,50.47
2018-12-16T00:28:16.868Z,57.13
2018-12-16T00:30:45.140Z,57.77
2018-12-16T00:33:13.692Z,58.57
2018-12-16T00:35:41.780Z,57.33
2018-12-16T00:38:09.931Z,54.03
2018-12-16T00:40:38.090Z,54.37
2018-12-16T00:43:06.239Z,56.43
2018-12-16T00:45:34.672Z,56.67
2018-12-16T00:48:02.756Z,58.33
2018-12-16T00:50:30.919Z,53.07
2018-12-16T00:52:59.067Z,55.13
2018-12-16T00:55:27.185Z,59.53
2018-12-16T00:57:55.280Z,63.47
2018-12-16T01:00:23.420Z,55.90
2018-12-16T01:02:52.104Z,61.07
2018-12-16T01:05:20.353Z,58.90
2018-12-16T01:07:48.488Z,61.80
2018-12-16T01:10:16.872Z,60.03
2018-12-16T01:12:45.169Z,61.80
2018-12-16T01:15:13.586Z,59.27
2018-12-16T01:17:41.712Z,59.57
2018-12-16T01:20:09.799Z,61.80
2018-12-16T01:22:43.345Z,63.40
2018-12-16T01:25:08.124Z,59.67
2018-12-16T01:27:36.203Z,59.93
2018-12-16T01:30:04.750Z,59.47
2018-12-16T01:32:32.843Z,64.07
2018-12-16T01:35:00.932Z,65.37
2018-12-16T01:37:29.308Z,59.97
2018-12-16T01:39:57.752Z,63.47
2018-12-16T01:42:25.875Z,64.07
2018-12-16T01:44:54.186Z,57.73
2018-12-16T01:47:22.327Z,60.70
2018-12-16T01:49:50.380Z,60.83
2018-12-16T01:52:18.505Z,60.20
2018-12-16T01:54:46.705Z,58.00
2018-12-16T01:57:14.904Z,60.33
2018-12-16T01:59:42.995Z,57.27
2018-12-16T02:02:11.114Z,62.10
2018-12-16T02:04:39.231Z,59.40
2018-12-16T02:07:07.629Z,61.17
2018-12-16T02:09:35.748Z,60.00
2018-12-16T02:12:03.891Z,61.63
2018-12-16T02:14:32.094Z,60.80
2018-12-16T02:17:00.227Z,58.30
2018-12-16T02:19:28.331Z,60.97
2018-12-16T02:21:56.684Z,60.47
2018-12-16T02:24:24.794Z,51.53
2018-12-16T02:26:52.891Z,58.47
2018-12-16T02:29:21.311Z,53.73
2018-12-16T02:31:49.541Z,62.77
2018-12-16T02:34:17.896Z,56.10
2018-12-16T02:36:46.179Z,53.63
2018-12-16T02:39:14.291Z,54.80
2018-12-16T02:41:42.518Z,54.97
2018-12-16T02:44:10.909Z,58.93
2018-12-16T02:46:39.107Z,58.20
2018-12-16T02:49:07.226Z,52.67
2018-12-16T02:51:35.441Z,52.37
2018-12-16T02:54:03.585Z,56.97
2018-12-16T02:56:31.681Z,58.60
2018-12-16T02:59:00.116Z,57.57
2018-12-16T03:01:28.245Z,58.70
2018-12-16T03:03:56.415Z,58.63
2018-12-16T03:06:24.571Z,55.30
2018-12-16T03:08:52.700Z,60.93
2018-12-16T03:11:20.822Z,62.80
2018-12-16T03:13:49.014Z,56.60
2018-12-16T03:16:17.195Z,58.70
2018-12-16T03:18:45.293Z,57.87
2018-12-16T03:21:13.651Z,66.00
2018-12-16T03:23:41.711Z,59.67
2018-12-16T03:26:09.822Z,57.50
2018-12-16T03:28:37.957Z,60.27
2018-12-16T03:31:06.072Z,58.07
2018-12-16T03:33:34.174Z,62.77
2018-12-16T03:36:02.516Z,61.20
2018-12-16T03:38:30.625Z,60.50
2018-12-16T03:40:58.743Z,62.60
2018-12-16T03:43:26.818Z,55.17
2018-12-16T03:45:55.472Z,65.53
2018-12-16T03:48:23.645Z,55.40
2018-12-16T03:50:52.168Z,58.37
2018-12-16T03:53:20.471Z,62.00
2018-12-16T03:55:48.632Z,61.00
2018-12-16T03:58:16.792Z,61.57
2018-12-16T04:00:45.312Z,66.23
2018-12-16T04:03:13.333Z,63.73
2018-12-16T04:05:41.674Z,58.37
2018-12-16T04:08:09.758Z,63.17
2018-12-16T04:10:37.887Z,61.97
2018-12-16T04:13:06.247Z,62.50
2018-12-16T04:15:34.324Z,67.13
2018-12-16T04:18:02.375Z,64.10
2018-12-16T04:20:30.527Z,68.20
2018-12-16T04:22:58.585Z,65.17
2018-12-16T04:25:26.596Z,66.60
2018-12-16T04:27:54.890Z,70.37
2018-12-16T04:30:23.000Z,63.57
2018-12-16T04:32:51.002Z,69.97
2018-12-16T04:35:19.307Z,69.83
2018-12-16T04:37:47.659Z,65.90
2018-12-16T04:40:15.731Z,74.17
2018-12-16T04:42:43.787Z,71.37
2018-12-16T04:45:11.884Z,75.37
2018-12-16T04:47:39.963Z,69.03
2018-12-16T04:50:08.025Z,69.17
2018-12-16T04:52:36.216Z,74.43
2018-12-16T04:55:04.300Z,76.10
2018-12-16T04:57:32.376Z,72.43
2018-12-16T05:00:00.431Z,73.30
2018-12-16T05:02:28.787Z,74.47
2018-12-16T05:04:56.824Z,79.83
2018-12-16T05:07:24.890Z,74.87
2018-12-16T05:09:53.220Z,83.47
2018-12-16T05:12:21.356Z,84.70
2018-12-16T05:14:49.404Z,77.57
2018-12-16T05:17:17.597Z,75.70
2018-12-16T05:19:45.614Z,77.33
2018-12-16T05:22:13.663Z,70.37
2018-12-16T05:24:41.842Z,78.27
2018-12-16T05:27:09.918Z,83.23
2018-12-16T05:29:37.931Z,77.63
2018-12-16T05:32:05.969Z,77.57
2018-12-16T05:34:34.022Z,82.70
2018-12-16T05:37:02.106Z,77.57
2018-12-16T05:39:30.174Z,81.67
2018-12-16T05:41:58.265Z,82.47
2018-12-16T05:44:26.535Z,89.30
2018-12-16T05:46:54.549Z,83.83
2018-12-16T05:49:22.895Z,87.87
2018-12-16T05:51:51.212Z,84.83
2018-12-16T05:54:19.234Z,89.47
2018-12-16T05:56:47.283Z,91.43
2018-12-16T05:59:15.361Z,84.73
2018-12-16T06:01:43.426Z,91.43
2018-12-16T06:04:11.472Z,102.53
2018-12-16T06:06:39.953Z,93.00
2018-12-16T06:09:07.947Z,90.50
2018-12-16T06:11:36.042Z,96.77
2018-12-16T06:14:04.212Z,98.33
2018-12-16T06:16:32.257Z,89.63
2018-12-16T06:19:00.374Z,100.43
2018-12-16T06:21:28.737Z,100.27
2018-12-16T06:23:56.809Z,102.63
2018-12-16T06:26:24.843Z,89.50
2018-12-16T06:28:53.321Z,99.20
2018-12-16T06:31:21.354Z,103.37
2018-12-16T06:33:49.445Z,108.30
2018-12-16T06:36:17.596Z,98.23
2018-12-16T06:38:45.786Z,102.73
2018-12-16T06:41:13.920Z,87.23
2018-12-16T06:43:42.263Z,97.87
2018-12-16T06:46:10.377Z,95.63
2018-12-16T06:48:38.440Z,99.07
2018-12-16T06:51:06.511Z,106.00
2018-12-16T06:53:34.640Z,92.17
2018-12-16T06:56:06.587Z,104.13
2018-12-16T06:58:32.713Z,95.10
2018-12-16T07:01:00.742Z,95.10
2018-12-16T07:03:28.795Z,107.73
2018-12-16T07:05:56.807Z,108.77
2018-12-16T07:08:25.551Z,125.27
2018-12-16T07:10:54.153Z,109.47
2018-12-16T07:13:22.232Z,113.30
2018-12-16T07:15:50.352Z,112.20
2018-12-16T07:18:18.439Z,113.60
2018-12-16T07:20:46.494Z,121.23
2018-12-16T07:23:14.874Z,123.20
2018-12-16T07:25:42.952Z,117.53
2018-12-16T07:28:11.540Z,223.90
2018-12-16T07:30:40.757Z,116.27
2018-12-16T07:33:08.783Z,118.17
2018-12-16T07:35:36.869Z,119.97
2018-12-16T07:38:06.146Z,150.17
2018-12-16T07:40:34.929Z,127.07
2018-12-16T07:43:07.833Z,131.20
2018-12-16T07:45:36.178Z,175.47
2018-12-16T07:48:04.380Z,137.30
2018-12-16T07:50:32.588Z,140.47
2018-12-16T07:53:00.681Z,154.07
2018-12-16T07:55:28.853Z,138.50
2018-12-16T07:57:57.103Z,155.17
2018-12-16T08:00:42.487Z,167.67
2018-12-16T08:03:26.837Z,194.63
2018-12-16T08:06:02.637Z,168.33
2018-12-16T08:08:39.667Z,281.77
2018-12-16T08:11:18.438Z,161.27
2018-12-16T08:13:55.130Z,154.00
2018-12-16T08:19:16.058Z,176.50
2018-12-16T08:24:45.321Z,147.53
2018-12-16T08:27:19.274Z,167.33
2018-12-16T08:33:00.771Z,157.10
2018-12-16T08:38:33.676Z,157.77
2018-12-16T08:41:18.011Z,159.50
2018-12-16T08:43:48.663Z,184.43
2018-12-16T08:46:33.150Z,173.50
2018-12-16T08:49:09.198Z,183.70
2018-12-16T08:54:36.142Z,307.80
2018-12-16T08:57:20.779Z,170.13
2018-12-16T08:59:59.299Z,109.90
2018-12-16T09:02:37.392Z,177.87
2018-12-16T09:05:12.009Z,175.00
2018-12-16T09:07:45.963Z,157.47
2018-12-16T09:13:18.474Z,185.17
2018-12-16T09:15:59.247Z,220.93
2018-12-16T09:18:38.927Z,129.40
2018-12-16T09:21:21.455Z,184.93
2018-12-16T09:23:59.316Z,206.47
2018-12-16T09:26:36.089Z,432.70
2018-12-16T09:32:02.894Z,159.50
2018-12-16T09:34:41.021Z,196.20
2018-12-16T09:43:08.463Z,171.83
2018-12-16T09:48:36.393Z,120.90
2018-12-16T09:51:16.280Z,216.07
2018-12-16T09:53:52.131Z,169.90
2018-12-16T09:56:30.854Z,194.77
2018-12-16T09:59:03.103Z,226.20
2018-12-16T10:01:39.741Z,150.87
2018-12-16T10:04:14.295Z,233.93
2018-12-16T10:06:42.421Z,219.03
2018-12-16T10:09:10.560Z,239.80
2018-12-16T10:11:38.687Z,173.07
2018-12-16T10:14:06.825Z,217.90
2018-12-16T10:16:35.519Z,238.23
2018-12-16T10:21:50.562Z,144.07
2018-12-16T10:24:19.396Z,270.80
2018-12-16T10:26:50.078Z,302.97
2018-12-16T10:29:24.108Z,222.47
2018-12-16T10:31:52.192Z,223.50
2018-12-16T10:34:20.915Z,262.47
2018-12-16T10:36:49.385Z,216.17
2018-12-16T10:39:17.575Z,214.13
2018-12-16T10:41:57.059Z,233.13
2018-12-16T10:53:13.633Z,171.27
2018-12-16T10:55:41.911Z,233.53
2018-12-16T10:58:10.064Z,261.83
2018-12-16T11:00:43.985Z,159.67
2018-12-16T11:03:12.527Z,270.40
2018-12-16T11:05:40.834Z,172.60
2018-12-16T11:08:09.294Z,176.37
2018-12-16T11:10:37.670Z,204.30
2018-12-16T11:13:05.973Z,191.90
2018-12-16T11:15:37.907Z,221.47
2018-12-16T11:18:06.247Z,283.20
2018-12-16T11:20:34.428Z,190.67
2018-12-16T11:23:06.118Z,187.50
2018-12-16T11:25:35.719Z,209.80
2018-12-16T11:28:04.082Z,273.27
2018-12-16T11:30:32.968Z,181.37
2018-12-16T11:33:01.358Z,200.13
2018-12-16T11:35:30.215Z,279.63
2018-12-16T11:37:59.712Z,175.33
2018-12-16T11:40:28.181Z,230.23
2018-12-16T11:42:56.242Z,239.13
2018-12-16T11:45:24.330Z,227.43
2018-12-16T11:47:52.820Z,205.93
2018-12-16T11:54:01.968Z,187.30
2018-12-16T11:56:30.298Z,231.70
2018-12-16T11:58:58.523Z,187.33
2018-12-16T12:01:26.618Z,230.37
2018-12-16T12:03:55.591Z,223.23
2018-12-16T12:06:23.665Z,299.00
2018-12-16T12:08:51.859Z,244.27
2018-12-16T12:11:20.012Z,253.07
2018-12-16T12:13:48.914Z,198.90
2018-12-16T12:16:16.983Z,208.57
2018-12-16T12:18:45.058Z,193.87
2018-12-16T12:21:13.411Z,212.53
2018-12-16T12:23:41.505Z,200.80
2018-12-16T12:26:09.626Z,201.53
2018-12-16T12:28:37.954Z,202.37
2018-12-16T12:31:07.051Z,163.33
2018-12-16T12:33:35.132Z,251.60
2018-12-16T12:36:03.202Z,229.73
2018-12-16T12:38:32.004Z,177.07
2018-12-16T12:41:00.076Z,200.20
2018-12-16T12:43:28.135Z,192.07
2018-12-16T12:45:56.220Z,214.33
2018-12-16T12:57:17.065Z,216.43
2018-12-16T13:14:18.165Z,189.57
2018-12-16T13:16:48.104Z,219.73
2018-12-16T13:19:23.060Z,193.90
2018-12-16T13:22:07.669Z,196.80
2018-12-16T13:27:20.734Z,184.30
2018-12-16T13:35:53.740Z,199.67
2018-12-16T13:38:26.318Z,244.90
2018-12-16T13:40:58.466Z,204.13
2018-12-16T13:43:31.896Z,231.93
2018-12-16T13:46:05.346Z,225.30
2018-12-16T13:48:35.048Z,222.27
2018-12-16T13:53:51.271Z,224.07
2018-12-16T13:56:20.837Z,196.83
2018-12-16T13:58:50.900Z,204.30
2018-12-16T14:01:31.690Z,180.50
2018-12-16T14:09:58.558Z,219.23
2018-12-16T14:30:19.035Z,216.07
2018-12-16T14:32:50.706Z,209.00
2018-12-16T14:38:28.398Z,199.23
2018-12-16T14:43:55.952Z,215.67
2018-12-16T14:49:26.186Z,212.23
2018-12-16T14:52:06.141Z,231.57
2018-12-16T14:54:34.324Z,236.13
2018-12-16T14:57:02.517Z,247.87
2018-12-16T15:02:27.655Z,212.50
2018-12-16T15:07:51.854Z,182.17
2018-12-16T15:10:30.242Z,166.03
2018-12-16T15:12:58.713Z,174.97
2018-12-16T15:15:39.159Z,182.43
2018-12-16T15:18:07.552Z,193.53
2018-12-16T15:20:37.594Z,204.40
2018-12-16T15:23:09.131Z,186.63
2018-12-16T15:25:51.494Z,184.50
2018-12-16T15:31:31.847Z,184.73
2018-12-16T15:34:03.971Z,198.63
2018-12-16T15:39:36.074Z,238.93
2018-12-16T15:42:04.353Z,220.60
2018-12-16T15:44:32.678Z,203.03
2018-12-16T15:47:00.847Z,232.27
2018-12-16T15:49:28.981Z,236.30
2018-12-16T15:51:57.173Z,239.53
2018-12-16T15:57:11.499Z,271.77
2018-12-16T15:59:39.736Z,272.20
2018-12-16T16:02:08.026Z,296.30
2018-12-16T16:04:36.446Z,272.70
2018-12-16T16:07:11.150Z,315.10
2018-12-16T16:09:40.210Z,291.50
2018-12-16T16:12:09.219Z,326.07
2018-12-16T16:17:47.596Z,319.27
2018-12-16T16:20:17.188Z,316.57
2018-12-16T16:22:46.922Z,299.03
2018-12-16T16:25:33.298Z,298.83
2018-12-16T16:28:02.450Z,314.00
2018-12-16T16:30:30.821Z,322.83
2018-12-16T16:33:00.695Z,280.00
2018-12-16T16:35:29.186Z,268.17
2018-12-16T16:38:01.729Z,263.27
2018-12-16T16:43:27.459Z,296.77
2018-12-16T16:46:08.297Z,328.70
2018-12-16T16:48:36.881Z,287.50
2018-12-16T16:51:09.252Z,306.60
2018-12-16T16:53:38.629Z,287.60
2018-12-16T16:56:11.946Z,261.63
2018-12-16T17:04:29.084Z,263.43
2018-12-16T17:06:57.592Z,269.87
2018-12-16T17:09:26.222Z,257.47
2018-12-16T17:11:58.449Z,275.77
2018-12-16T17:14:27.177Z,246.20
2018-12-16T17:16:55.557Z,268.73
2018-12-16T17:19:24.357Z,302.63
2018-12-16T17:27:48.110Z,255.00
2018-12-16T17:30:16.999Z,288.13
2018-12-16T17:32:57.159Z,278.83
2018-12-16T17:38:21.795Z,264.43
2018-12-16T17:40:50.250Z,289.27
2018-12-16T17:43:18.771Z,286.60
2018-12-16T17:45:47.458Z,302.80
2018-12-16T17:48:16.318Z,343.00
2018-12-16T17:50:44.808Z,280.13
2018-12-16T17:53:13.070Z,283.73
2018-12-16T17:55:51.332Z,234.80
2018-12-16T18:04:12.334Z,193.67
2018-12-16T18:15:28.309Z,211.17
2018-12-16T18:18:02.333Z,223.27
2018-12-16T18:20:52.924Z,232.17
2018-12-16T18:41:14.842Z,287.87
2018-12-16T18:43:57.105Z,286.03
2018-12-16T18:54:55.341Z,271.87
2018-12-16T18:57:35.679Z,286.33
2018-12-16T19:00:16.707Z,260.63
2018-12-16T19:02:58.941Z,274.00
2018-12-16T19:05:28.753Z,223.50
2018-12-16T19:07:56.918Z,219.80
2018-12-16T19:10:25.745Z,222.07
2018-12-16T19:12:53.910Z,193.93
2018-12-16T19:15:22.692Z,159.83
2018-12-16T19:18:00.197Z,170.87
2018-12-16T19:20:39.075Z,181.10
2018-12-16T19:23:16.981Z,168.57
2018-12-16T19:25:56.982Z,170.97
2018-12-16T19:34:09.087Z,143.27
2018-12-16T19:36:37.578Z,158.40
2018-12-16T19:39:05.977Z,164.10
2018-12-16T19:41:34.073Z,157.40
2018-12-16T19:44:02.147Z,141.53
2018-12-16T19:46:40.189Z,169.70
2018-12-16T19:49:13.015Z,156.07
2018-12-16T19:51:50.718Z,135.90
2018-12-16T19:54:21.197Z,144.40
2018-12-16T19:56:49.538Z,158.00
2018-12-16T19:59:27.166Z,143.40
2018-12-16T20:01:55.261Z,158.83
2018-12-16T20:04:36.398Z,160.23
2018-12-16T20:10:00.850Z,161.60
2018-12-16T20:15:25.611Z,163.77
2018-12-16T20:18:00.148Z,168.50
2018-12-16T20:20:40.626Z,168.77
2018-12-16T20:23:08.755Z,184.10
2018-12-16T20:25:39.185Z,205.73
2018-12-16T20:28:07.328Z,213.87
2018-12-16T20:30:42.533Z,206.43
2018-12-16T20:33:10.701Z,210.37
2018-12-16T20:35:39.767Z,208.27
2018-12-16T20:38:07.975Z,244.17
2018-12-16T20:40:43.487Z,225.07
2018-12-16T20:43:26.462Z,239.53
2018-12-16T20:48:50.737Z,249.00
2018-12-16T20:54:30.126Z,327.93
2018-12-16T21:00:07.680Z,332.43
2018-12-16T21:05:32.741Z,318.10
2018-12-16T21:08:10.475Z,311.13
2018-12-16T21:13:50.134Z,332.83
2018-12-16T21:28:20.869Z,325.63
2018-12-16T21:30:50.377Z,304.20
2018-12-16T21:33:32.492Z,334.53
2018-12-16T21:36:13.954Z,298.17
2018-12-16T21:38:54.662Z,286.37
2018-12-16T21:47:33.239Z,273.23
2018-12-16T21:56:05.974Z,295.37
2018-12-16T21:58:39.599Z,288.33
2018-12-16T22:01:16.935Z,311.33
2018-12-16T22:09:51.958Z,276.57
2018-12-16T22:12:36.807Z,248.57
2018-12-16T22:15:13.470Z,232.63
2018-12-16T22:17:45.957Z,235.50
2018-12-16T22:23:18.923Z,227.93
2018-12-16T22:25:57.629Z,237.13
2018-12-16T22:31:38.397Z,244.03
2018-12-16T22:34:17.331Z,221.67
2018-12-16T22:36:52.444Z,224.20
2018-12-16T22:39:32.407Z,203.03
2018-12-16T22:42:10.529Z,202.37
2018-12-16T22:44:44.852Z,193.63
2018-12-16T22:53:05.577Z,197.20
2018-12-16T22:55:39.451Z,209.13
2018-12-16T22:58:19.551Z,209.07
2018-12-16T23:01:00.892Z,207.50
2018-12-16T23:03:36.825Z,205.93
2018-12-16T23:06:12.832Z,220.67
2018-12-16T23:08:55.311Z,203.90
2018-12-16T23:11:33.210Z,215.50
2018-12-16T23:14:11.424Z,216.93
2018-12-16T23:16:46.055Z,223.23
2018-12-16T23:19:24.542Z,233.17
2018-12-16T23:22:00.942Z,208.23
2018-12-16T23:27:42.218Z,216.73
2018-12-16T23:33:08.726Z,143.60
2018-12-16T23:35:49.256Z,163.27
2018-12-16T23:38:25.789Z,152.63
2018-12-16T23:41:03.945Z,154.17
2018-12-16T23:43:42.484Z,158.43
2018-12-16T23:46:17.734Z,190.17
2018-12-16T23:48:55.871Z,177.33
2018-12-16T23:51:30.607Z,191.27
2018-12-16T23:54:04.409Z,182.33
2018-12-16T23:56:39.621Z,184.20
2018-12-16T23:59:17.921Z,170.20
